sensor_id;sensor_type;location;lat;lon;timestamp;P1;durP1;ratioP1;P2;durP2;ratioP2
39956;SDS011;48483;44.640;7.494;2024-01-30T00:00:20;29.63;;;20.75;;
39956;SDS011;48483;44.640;7.494;2024-01-30T00:02:48;34.53;;;22.42;;
39956;SDS011;48483;44.640;7.494;2024-01-30T00:05:15;32.25;;;21.75;;
39956;SDS011;48483;44.640;7.494;2024-01-30T00:07:44;32.38;;;21.05;;
39956;SDS011;48483;44.640;7.494;2024-01-30T00:10:10;31.13;;;21.05;;
39956;SDS011;48483;44.640;7.494;2024-01-30T00:12:37;29.60;;;20.15;;
39956;SDS011;48483;44.640;7.494;2024-01-30T00:15:04;32.15;;;21.65;;
39956;SDS011;48483;44.640;7.494;2024-01-30T00:17:34;23.90;;;15.90;;
39956;SDS011;48483;44.640;7.494;2024-01-30T00:20:02;29.08;;;18.95;;
39956;SDS011;48483;44.640;7.494;2024-01-30T00:22:31;34.15;;;20.92;;
39956;SDS011;48483;44.640;7.494;2024-01-30T00:24:58;31.27;;;19.85;;
39956;SDS011;48483;44.640;7.494;2024-01-30T00:27:24;32.05;;;21.15;;
39956;SDS011;48483;44.640;7.494;2024-01-30T00:29:52;31.20;;;20.67;;
39956;SDS011;48483;44.640;7.494;2024-01-30T00:32:18;32.47;;;20.27;;
39956;SDS011;48483;44.640;7.494;2024-01-30T00:34:45;29.65;;;19.55;;
39956;SDS011;48483;44.640;7.494;2024-01-30T00:37:13;34.25;;;20.67;;
39956;SDS011;48483;44.640;7.494;2024-01-30T00:39:40;36.10;;;21.35;;
39956;SDS011;48483;44.640;7.494;2024-01-30T00:42:06;28.73;;;19.20;;
39956;SDS011;48483;44.640;7.494;2024-01-30T00:44:34;30.15;;;19.55;;
39956;SDS011;48483;44.640;7.494;2024-01-30T00:47:03;31.25;;;21.33;;
39956;SDS011;48483;44.640;7.494;2024-01-30T00:49:29;29.88;;;18.90;;
39956;SDS011;48483;44.640;7.494;2024-01-30T00:51:56;29.92;;;20.00;;
39956;SDS011;48483;44.640;7.494;2024-01-30T00:54:24;29.13;;;19.58;;
39956;SDS011;48483;44.640;7.494;2024-01-30T00:56:51;34.60;;;21.00;;
39956;SDS011;48483;44.640;7.494;2024-01-30T00:59:17;31.30;;;19.45;;
39956;SDS011;48483;44.640;7.494;2024-01-30T01:01:44;31.02;;;20.33;;
39956;SDS011;48483;44.640;7.494;2024-01-30T01:04:10;27.52;;;18.42;;
39956;SDS011;48483;44.640;7.494;2024-01-30T01:06:37;29.80;;;19.27;;
39956;SDS011;48483;44.640;7.494;2024-01-30T01:09:04;36.22;;;20.10;;
39956;SDS011;48483;44.640;7.494;2024-01-30T01:11:32;30.83;;;20.17;;
39956;SDS011;48483;44.640;7.494;2024-01-30T01:13:58;30.55;;;19.35;;
39956;SDS011;48483;44.640;7.494;2024-01-30T01:16:25;27.30;;;18.55;;
39956;SDS011;48483;44.640;7.494;2024-01-30T01:18:51;30.55;;;19.48;;
39956;SDS011;48483;44.640;7.494;2024-01-30T01:21:18;30.52;;;20.00;;
39956;SDS011;48483;44.640;7.494;2024-01-30T01:23:45;25.63;;;17.58;;
39956;SDS011;48483;44.640;7.494;2024-01-30T01:26:11;32.75;;;20.13;;
39956;SDS011;48483;44.640;7.494;2024-01-30T01:28:40;29.27;;;18.45;;
39956;SDS011;48483;44.640;7.494;2024-01-30T01:31:07;29.67;;;19.15;;
39956;SDS011;48483;44.640;7.494;2024-01-30T01:33:34;29.77;;;19.35;;
39956;SDS011;48483;44.640;7.494;2024-01-30T01:36:02;32.88;;;20.55;;
39956;SDS011;48483;44.640;7.494;2024-01-30T01:38:29;33.58;;;21.27;;
39956;SDS011;48483;44.640;7.494;2024-01-30T01:40:56;31.38;;;19.58;;
39956;SDS011;48483;44.640;7.494;2024-01-30T01:43:23;28.75;;;18.35;;
39956;SDS011;48483;44.640;7.494;2024-01-30T01:45:51;32.55;;;22.50;;
39956;SDS011;48483;44.640;7.494;2024-01-30T01:48:17;31.77;;;19.98;;
39956;SDS011;48483;44.640;7.494;2024-01-30T01:50:44;28.48;;;19.27;;
39956;SDS011;48483;44.640;7.494;2024-01-30T01:53:11;28.38;;;18.58;;
39956;SDS011;48483;44.640;7.494;2024-01-30T01:55:39;30.70;;;19.23;;
39956;SDS011;48483;44.640;7.494;2024-01-30T01:58:06;29.77;;;19.55;;
39956;SDS011;48483;44.640;7.494;2024-01-30T02:00:34;28.23;;;20.30;;
39956;SDS011;48483;44.640;7.494;2024-01-30T02:05:33;30.67;;;19.38;;
39956;SDS011;48483;44.640;7.494;2024-01-30T02:08:01;30.13;;;18.45;;
39956;SDS011;48483;44.640;7.494;2024-01-30T02:10:28;29.98;;;20.92;;
39956;SDS011;48483;44.640;7.494;2024-01-30T02:12:54;27.85;;;20.02;;
39956;SDS011;48483;44.640;7.494;2024-01-30T02:15:21;31.27;;;20.88;;
39956;SDS011;48483;44.640;7.494;2024-01-30T02:17:47;30.33;;;19.20;;
39956;SDS011;48483;44.640;7.494;2024-01-30T02:20:15;30.23;;;20.13;;
39956;SDS011;48483;44.640;7.494;2024-01-30T02:22:43;31.55;;;20.80;;
39956;SDS011;48483;44.640;7.494;2024-01-30T02:25:10;30.67;;;21.15;;
39956;SDS011;48483;44.640;7.494;2024-01-30T02:27:37;31.25;;;20.80;;
39956;SDS011;48483;44.640;7.494;2024-01-30T02:30:04;34.15;;;20.48;;
39956;SDS011;48483;44.640;7.494;2024-01-30T02:32:32;31.55;;;21.05;;
39956;SDS011;48483;44.640;7.494;2024-01-30T02:34:58;30.02;;;19.58;;
39956;SDS011;48483;44.640;7.494;2024-01-30T02:37:25;33.75;;;22.13;;
39956;SDS011;48483;44.640;7.494;2024-01-30T02:39:53;27.42;;;20.17;;
39956;SDS011;48483;44.640;7.494;2024-01-30T02:42:19;34.60;;;22.25;;
39956;SDS011;48483;44.640;7.494;2024-01-30T02:44:46;36.72;;;20.52;;
39956;SDS011;48483;44.640;7.494;2024-01-30T02:47:13;31.30;;;22.67;;
39956;SDS011;48483;44.640;7.494;2024-01-30T02:49:39;31.88;;;20.58;;
39956;SDS011;48483;44.640;7.494;2024-01-30T02:52:06;34.78;;;22.08;;
39956;SDS011;48483;44.640;7.494;2024-01-30T02:54:33;32.22;;;21.30;;
39956;SDS011;48483;44.640;7.494;2024-01-30T02:57:01;36.20;;;23.33;;
39956;SDS011;48483;44.640;7.494;2024-01-30T02:59:27;31.35;;;20.60;;
39956;SDS011;48483;44.640;7.494;2024-01-30T03:01:54;33.67;;;20.70;;
39956;SDS011;48483;44.640;7.494;2024-01-30T03:04:20;30.65;;;21.08;;
39956;SDS011;48483;44.640;7.494;2024-01-30T03:06:47;35.55;;;22.38;;
39956;SDS011;48483;44.640;7.494;2024-01-30T03:09:15;33.20;;;21.92;;
39956;SDS011;48483;44.640;7.494;2024-01-30T03:11:42;33.60;;;22.70;;
39956;SDS011;48483;44.640;7.494;2024-01-30T03:14:10;35.90;;;24.10;;
39956;SDS011;48483;44.640;7.494;2024-01-30T03:16:36;37.78;;;23.42;;
39956;SDS011;48483;44.640;7.494;2024-01-30T03:19:04;35.17;;;23.25;;
39956;SDS011;48483;44.640;7.494;2024-01-30T03:21:33;34.10;;;21.98;;
39956;SDS011;48483;44.640;7.494;2024-01-30T03:24:01;31.17;;;21.25;;
39956;SDS011;48483;44.640;7.494;2024-01-30T03:26:27;37.15;;;23.50;;
39956;SDS011;48483;44.640;7.494;2024-01-30T03:28:54;31.88;;;21.27;;
39956;SDS011;48483;44.640;7.494;2024-01-30T03:31:22;34.40;;;21.40;;
39956;SDS011;48483;44.640;7.494;2024-01-30T03:33:48;31.42;;;21.55;;
39956;SDS011;48483;44.640;7.494;2024-01-30T03:36:15;31.08;;;21.23;;
39956;SDS011;48483;44.640;7.494;2024-01-30T03:38:42;32.72;;;21.38;;
39956;SDS011;48483;44.640;7.494;2024-01-30T03:41:08;28.95;;;21.08;;
39956;SDS011;48483;44.640;7.494;2024-01-30T03:43:36;36.97;;;22.45;;
39956;SDS011;48483;44.640;7.494;2024-01-30T03:46:02;32.42;;;21.90;;
39956;SDS011;48483;44.640;7.494;2024-01-30T03:48:31;32.08;;;21.17;;
39956;SDS011;48483;44.640;7.494;2024-01-30T03:50:57;35.55;;;21.50;;
39956;SDS011;48483;44.640;7.494;2024-01-30T03:53:24;35.10;;;22.85;;
39956;SDS011;48483;44.640;7.494;2024-01-30T03:55:50;31.58;;;20.15;;
39956;SDS011;48483;44.640;7.494;2024-01-30T03:58:17;29.70;;;20.40;;
39956;SDS011;48483;44.640;7.494;2024-01-30T04:00:44;31.55;;;21.20;;
39956;SDS011;48483;44.640;7.494;2024-01-30T04:03:10;30.38;;;21.30;;
39956;SDS011;48483;44.640;7.494;2024-01-30T04:05:38;33.70;;;20.95;;
39956;SDS011;48483;44.640;7.494;2024-01-30T04:08:05;33.53;;;20.80;;
39956;SDS011;48483;44.640;7.494;2024-01-30T04:10:32;38.05;;;24.55;;
39956;SDS011;48483;44.640;7.494;2024-01-30T04:12:58;27.80;;;20.48;;
39956;SDS011;48483;44.640;7.494;2024-01-30T04:15:25;31.98;;;23.70;;
39956;SDS011;48483;44.640;7.494;2024-01-30T04:17:52;32.92;;;21.30;;
39956;SDS011;48483;44.640;7.494;2024-01-30T04:20:19;31.60;;;20.08;;
39956;SDS011;48483;44.640;7.494;2024-01-30T04:22:47;30.35;;;20.23;;
39956;SDS011;48483;44.640;7.494;2024-01-30T04:25:14;34.78;;;23.27;;
39956;SDS011;48483;44.640;7.494;2024-01-30T04:27:40;37.92;;;22.13;;
39956;SDS011;48483;44.640;7.494;2024-01-30T04:30:07;31.45;;;21.70;;
39956;SDS011;48483;44.640;7.494;2024-01-30T04:32:34;33.45;;;20.40;;
39956;SDS011;48483;44.640;7.494;2024-01-30T04:35:01;34.95;;;20.05;;
39956;SDS011;48483;44.640;7.494;2024-01-30T04:37:28;31.30;;;19.73;;
39956;SDS011;48483;44.640;7.494;2024-01-30T04:39:56;32.42;;;19.88;;
39956;SDS011;48483;44.640;7.494;2024-01-30T04:42:23;32.78;;;21.15;;
39956;SDS011;48483;44.640;7.494;2024-01-30T04:44:49;32.17;;;20.35;;
39956;SDS011;48483;44.640;7.494;2024-01-30T04:47:16;34.05;;;21.20;;
39956;SDS011;48483;44.640;7.494;2024-01-30T04:49:43;29.40;;;20.00;;
39956;SDS011;48483;44.640;7.494;2024-01-30T04:52:09;31.75;;;21.30;;
39956;SDS011;48483;44.640;7.494;2024-01-30T04:54:36;33.92;;;22.85;;
39956;SDS011;48483;44.640;7.494;2024-01-30T04:57:04;31.70;;;20.48;;
39956;SDS011;48483;44.640;7.494;2024-01-30T04:59:35;29.80;;;19.95;;
39956;SDS011;48483;44.640;7.494;2024-01-30T05:02:02;33.92;;;21.67;;
39956;SDS011;48483;44.640;7.494;2024-01-30T05:04:29;31.17;;;22.23;;
39956;SDS011;48483;44.640;7.494;2024-01-30T05:06:55;33.17;;;20.92;;
39956;SDS011;48483;44.640;7.494;2024-01-30T05:09:22;32.15;;;21.65;;
39956;SDS011;48483;44.640;7.494;2024-01-30T05:11:48;29.20;;;19.98;;
39956;SDS011;48483;44.640;7.494;2024-01-30T05:14:16;29.02;;;19.20;;
39956;SDS011;48483;44.640;7.494;2024-01-30T05:16:43;30.27;;;19.80;;
39956;SDS011;48483;44.640;7.494;2024-01-30T05:19:12;31.00;;;19.90;;
39956;SDS011;48483;44.640;7.494;2024-01-30T05:21:40;30.77;;;19.90;;
39956;SDS011;48483;44.640;7.494;2024-01-30T05:24:07;30.27;;;19.35;;
39956;SDS011;48483;44.640;7.494;2024-01-30T05:26:35;32.40;;;20.63;;
39956;SDS011;48483;44.640;7.494;2024-01-30T05:29:02;27.80;;;19.23;;
39956;SDS011;48483;44.640;7.494;2024-01-30T05:31:30;34.78;;;20.95;;
39956;SDS011;48483;44.640;7.494;2024-01-30T05:33:57;30.38;;;21.23;;
39956;SDS011;48483;44.640;7.494;2024-01-30T05:36:23;35.45;;;21.42;;
39956;SDS011;48483;44.640;7.494;2024-01-30T05:38:50;35.38;;;21.02;;
39956;SDS011;48483;44.640;7.494;2024-01-30T05:41:16;33.17;;;20.60;;
39956;SDS011;48483;44.640;7.494;2024-01-30T05:43:43;32.45;;;21.13;;
39956;SDS011;48483;44.640;7.494;2024-01-30T05:46:10;34.97;;;21.90;;
39956;SDS011;48483;44.640;7.494;2024-01-30T05:48:38;35.63;;;21.38;;
39956;SDS011;48483;44.640;7.494;2024-01-30T05:51:04;29.20;;;19.85;;
39956;SDS011;48483;44.640;7.494;2024-01-30T05:53:32;30.52;;;20.38;;
39956;SDS011;48483;44.640;7.494;2024-01-30T05:55:59;31.40;;;18.85;;
39956;SDS011;48483;44.640;7.494;2024-01-30T05:58:27;31.65;;;19.75;;
39956;SDS011;48483;44.640;7.494;2024-01-30T06:00:53;32.42;;;20.27;;
39956;SDS011;48483;44.640;7.494;2024-01-30T06:03:20;33.17;;;21.15;;
39956;SDS011;48483;44.640;7.494;2024-01-30T06:05:48;29.88;;;20.48;;
39956;SDS011;48483;44.640;7.494;2024-01-30T06:08:15;31.70;;;18.75;;
39956;SDS011;48483;44.640;7.494;2024-01-30T06:10:41;27.38;;;18.30;;
39956;SDS011;48483;44.640;7.494;2024-01-30T06:13:08;30.85;;;20.45;;
39956;SDS011;48483;44.640;7.494;2024-01-30T06:15:34;30.85;;;18.38;;
39956;SDS011;48483;44.640;7.494;2024-01-30T06:18:01;31.23;;;19.20;;
39956;SDS011;48483;44.640;7.494;2024-01-30T06:20:28;29.15;;;18.85;;
39956;SDS011;48483;44.640;7.494;2024-01-30T06:22:56;27.23;;;18.35;;
39956;SDS011;48483;44.640;7.494;2024-01-30T06:25:22;34.40;;;20.80;;
39956;SDS011;48483;44.640;7.494;2024-01-30T06:27:49;31.98;;;19.40;;
39956;SDS011;48483;44.640;7.494;2024-01-30T06:30:16;34.80;;;20.75;;
39956;SDS011;48483;44.640;7.494;2024-01-30T06:32:42;33.42;;;19.77;;
39956;SDS011;48483;44.640;7.494;2024-01-30T06:35:09;34.13;;;20.35;;
39956;SDS011;48483;44.640;7.494;2024-01-30T06:37:36;26.92;;;18.23;;
39956;SDS011;48483;44.640;7.494;2024-01-30T06:40:05;32.53;;;19.25;;
39956;SDS011;48483;44.640;7.494;2024-01-30T06:42:32;31.35;;;19.25;;
39956;SDS011;48483;44.640;7.494;2024-01-30T06:44:59;29.17;;;19.75;;
39956;SDS011;48483;44.640;7.494;2024-01-30T06:47:25;35.55;;;20.65;;
39956;SDS011;48483;44.640;7.494;2024-01-30T06:49:52;37.00;;;20.05;;
39956;SDS011;48483;44.640;7.494;2024-01-30T06:52:19;32.95;;;20.10;;
39956;SDS011;48483;44.640;7.494;2024-01-30T06:54:45;33.92;;;20.17;;
39956;SDS011;48483;44.640;7.494;2024-01-30T06:57:13;31.73;;;19.25;;
39956;SDS011;48483;44.640;7.494;2024-01-30T06:59:40;33.53;;;19.75;;
39956;SDS011;48483;44.640;7.494;2024-01-30T07:02:09;31.58;;;20.52;;
39956;SDS011;48483;44.640;7.494;2024-01-30T07:04:36;37.42;;;20.65;;
39956;SDS011;48483;44.640;7.494;2024-01-30T07:07:06;29.75;;;19.45;;
39956;SDS011;48483;44.640;7.494;2024-01-30T07:09:38;34.13;;;19.73;;
39956;SDS011;48483;44.640;7.494;2024-01-30T07:12:05;31.83;;;20.17;;
39956;SDS011;48483;44.640;7.494;2024-01-30T07:14:33;31.88;;;20.13;;
39956;SDS011;48483;44.640;7.494;2024-01-30T07:17:00;33.00;;;20.60;;
39956;SDS011;48483;44.640;7.494;2024-01-30T07:19:26;33.10;;;21.13;;
39956;SDS011;48483;44.640;7.494;2024-01-30T07:21:53;29.98;;;20.23;;
39956;SDS011;48483;44.640;7.494;2024-01-30T07:24:20;44.65;;;20.35;;
39956;SDS011;48483;44.640;7.494;2024-01-30T07:26:46;32.20;;;19.45;;
39956;SDS011;48483;44.640;7.494;2024-01-30T07:29:13;33.17;;;19.70;;
39956;SDS011;48483;44.640;7.494;2024-01-30T07:31:41;28.40;;;19.25;;
39956;SDS011;48483;44.640;7.494;2024-01-30T07:34:07;34.65;;;20.80;;
39956;SDS011;48483;44.640;7.494;2024-01-30T07:36:34;32.90;;;20.52;;
39956;SDS011;48483;44.640;7.494;2024-01-30T07:39:01;30.83;;;21.05;;
39956;SDS011;48483;44.640;7.494;2024-01-30T07:41:27;32.80;;;22.15;;
39956;SDS011;48483;44.640;7.494;2024-01-30T07:43:54;28.10;;;20.15;;
39956;SDS011;48483;44.640;7.494;2024-01-30T07:46:20;33.22;;;21.52;;
39956;SDS011;48483;44.640;7.494;2024-01-30T07:48:48;31.08;;;20.27;;
39956;SDS011;48483;44.640;7.494;2024-01-30T07:51:15;31.33;;;19.08;;
39956;SDS011;48483;44.640;7.494;2024-01-30T07:53:41;29.75;;;20.27;;
39956;SDS011;48483;44.640;7.494;2024-01-30T07:56:08;33.35;;;21.42;;
39956;SDS011;48483;44.640;7.494;2024-01-30T07:58:34;33.47;;;21.00;;
39956;SDS011;48483;44.640;7.494;2024-01-30T08:01:01;34.70;;;19.95;;
39956;SDS011;48483;44.640;7.494;2024-01-30T08:03:28;36.53;;;21.98;;
39956;SDS011;48483;44.640;7.494;2024-01-30T08:05:56;34.92;;;20.17;;
39956;SDS011;48483;44.640;7.494;2024-01-30T08:08:23;39.13;;;23.42;;
39956;SDS011;48483;44.640;7.494;2024-01-30T08:10:49;35.33;;;23.00;;
39956;SDS011;48483;44.640;7.494;2024-01-30T08:13:16;40.05;;;23.00;;
39956;SDS011;48483;44.640;7.494;2024-01-30T08:15:43;35.97;;;24.52;;
39956;SDS011;48483;44.640;7.494;2024-01-30T08:18:09;41.63;;;25.55;;
39956;SDS011;48483;44.640;7.494;2024-01-30T08:20:36;38.67;;;24.38;;
39956;SDS011;48483;44.640;7.494;2024-01-30T08:23:04;42.70;;;26.02;;
39956;SDS011;48483;44.640;7.494;2024-01-30T08:25:30;36.47;;;24.27;;
39956;SDS011;48483;44.640;7.494;2024-01-30T08:27:57;34.38;;;23.33;;
39956;SDS011;48483;44.640;7.494;2024-01-30T08:30:24;39.72;;;26.13;;
39956;SDS011;48483;44.640;7.494;2024-01-30T08:32:50;43.03;;;26.65;;
39956;SDS011;48483;44.640;7.494;2024-01-30T08:35:17;33.95;;;23.98;;
39956;SDS011;48483;44.640;7.494;2024-01-30T08:37:44;38.83;;;26.30;;
39956;SDS011;48483;44.640;7.494;2024-01-30T08:40:12;34.10;;;25.17;;
39956;SDS011;48483;44.640;7.494;2024-01-30T08:42:39;38.63;;;24.98;;
39956;SDS011;48483;44.640;7.494;2024-01-30T08:45:05;39.38;;;27.52;;
39956;SDS011;48483;44.640;7.494;2024-01-30T08:47:32;39.17;;;26.75;;
39956;SDS011;48483;44.640;7.494;2024-01-30T08:49:59;39.13;;;27.00;;
39956;SDS011;48483;44.640;7.494;2024-01-30T08:52:25;44.60;;;27.85;;
39956;SDS011;48483;44.640;7.494;2024-01-30T08:54:52;40.10;;;27.23;;
39956;SDS011;48483;44.640;7.494;2024-01-30T08:57:20;39.10;;;26.85;;
39956;SDS011;48483;44.640;7.494;2024-01-30T08:59:47;39.13;;;26.00;;
39956;SDS011;48483;44.640;7.494;2024-01-30T09:02:13;38.30;;;25.83;;
39956;SDS011;48483;44.640;7.494;2024-01-30T09:04:42;45.80;;;27.23;;
39956;SDS011;48483;44.640;7.494;2024-01-30T09:07:08;39.28;;;27.55;;
39956;SDS011;48483;44.640;7.494;2024-01-30T09:09:37;38.42;;;26.70;;
39956;SDS011;48483;44.640;7.494;2024-01-30T09:12:05;44.30;;;27.40;;
39956;SDS011;48483;44.640;7.494;2024-01-30T09:14:37;40.67;;;27.35;;
39956;SDS011;48483;44.640;7.494;2024-01-30T09:17:03;43.28;;;28.38;;
39956;SDS011;48483;44.640;7.494;2024-01-30T09:19:30;42.30;;;28.25;;
39956;SDS011;48483;44.640;7.494;2024-01-30T09:21:57;43.22;;;29.98;;
39956;SDS011;48483;44.640;7.494;2024-01-30T09:24:24;43.05;;;28.08;;
39956;SDS011;48483;44.640;7.494;2024-01-30T09:26:51;44.90;;;30.25;;
39956;SDS011;48483;44.640;7.494;2024-01-30T09:29:18;47.83;;;30.88;;
39956;SDS011;48483;44.640;7.494;2024-01-30T09:31:45;44.10;;;31.00;;
39956;SDS011;48483;44.640;7.494;2024-01-30T09:34:12;47.92;;;31.92;;
39956;SDS011;48483;44.640;7.494;2024-01-30T09:36:39;46.80;;;30.65;;
39956;SDS011;48483;44.640;7.494;2024-01-30T09:39:05;49.05;;;31.45;;
39956;SDS011;48483;44.640;7.494;2024-01-30T09:41:33;48.03;;;31.83;;
39956;SDS011;48483;44.640;7.494;2024-01-30T09:44:05;40.65;;;29.05;;
39956;SDS011;48483;44.640;7.494;2024-01-30T09:46:33;44.42;;;29.90;;
39956;SDS011;48483;44.640;7.494;2024-01-30T09:49:02;45.72;;;31.20;;
39956;SDS011;48483;44.640;7.494;2024-01-30T09:51:30;46.78;;;30.45;;
39956;SDS011;48483;44.640;7.494;2024-01-30T09:53:57;44.13;;;29.35;;
39956;SDS011;48483;44.640;7.494;2024-01-30T09:56:23;45.67;;;28.95;;
39956;SDS011;48483;44.640;7.494;2024-01-30T09:58:50;45.28;;;29.13;;
39956;SDS011;48483;44.640;7.494;2024-01-30T10:01:17;45.75;;;30.13;;
39956;SDS011;48483;44.640;7.494;2024-01-30T10:03:44;44.35;;;29.20;;
39956;SDS011;48483;44.640;7.494;2024-01-30T10:06:12;38.05;;;26.50;;
39956;SDS011;48483;44.640;7.494;2024-01-30T10:08:41;38.70;;;28.50;;
39956;SDS011;48483;44.640;7.494;2024-01-30T10:11:08;37.13;;;27.33;;
39956;SDS011;48483;44.640;7.494;2024-01-30T10:13:35;40.03;;;28.85;;
39956;SDS011;48483;44.640;7.494;2024-01-30T10:16:02;38.25;;;27.95;;
39956;SDS011;48483;44.640;7.494;2024-01-30T10:18:32;49.30;;;28.77;;
39956;SDS011;48483;44.640;7.494;2024-01-30T10:20:59;48.00;;;28.88;;
39956;SDS011;48483;44.640;7.494;2024-01-30T10:23:27;47.97;;;28.52;;
39956;SDS011;48483;44.640;7.494;2024-01-30T10:25:54;42.53;;;29.63;;
39956;SDS011;48483;44.640;7.494;2024-01-30T10:28:22;41.63;;;29.80;;
39956;SDS011;48483;44.640;7.494;2024-01-30T10:30:56;44.80;;;31.50;;
39956;SDS011;48483;44.640;7.494;2024-01-30T10:33:25;43.85;;;29.33;;
39956;SDS011;48483;44.640;7.494;2024-01-30T10:35:53;46.22;;;31.92;;
39956;SDS011;48483;44.640;7.494;2024-01-30T10:38:27;41.15;;;29.42;;
39956;SDS011;48483;44.640;7.494;2024-01-30T10:40:55;46.08;;;29.98;;
39956;SDS011;48483;44.640;7.494;2024-01-30T10:43:23;39.47;;;28.98;;
39956;SDS011;48483;44.640;7.494;2024-01-30T10:45:56;45.10;;;28.88;;
39956;SDS011;48483;44.640;7.494;2024-01-30T10:48:27;31.10;;;21.88;;
39956;SDS011;48483;44.640;7.494;2024-01-30T10:50:57;42.88;;;30.80;;
39956;SDS011;48483;44.640;7.494;2024-01-30T10:53:27;40.83;;;29.08;;
39956;SDS011;48483;44.640;7.494;2024-01-30T10:58:24;43.60;;;28.50;;
39956;SDS011;48483;44.640;7.494;2024-01-30T11:00:52;47.65;;;29.95;;
39956;SDS011;48483;44.640;7.494;2024-01-30T11:03:20;48.40;;;32.03;;
39956;SDS011;48483;44.640;7.494;2024-01-30T11:05:48;45.35;;;30.90;;
39956;SDS011;48483;44.640;7.494;2024-01-30T11:08:22;43.22;;;30.85;;
39956;SDS011;48483;44.640;7.494;2024-01-30T11:10:54;46.45;;;31.85;;
39956;SDS011;48483;44.640;7.494;2024-01-30T11:13:22;48.80;;;34.22;;
39956;SDS011;48483;44.640;7.494;2024-01-30T11:15:52;44.33;;;33.33;;
39956;SDS011;48483;44.640;7.494;2024-01-30T11:18:24;42.45;;;32.03;;
39956;SDS011;48483;44.640;7.494;2024-01-30T11:20:52;51.63;;;33.55;;
39956;SDS011;48483;44.640;7.494;2024-01-30T11:23:18;46.25;;;32.80;;
39956;SDS011;48483;44.640;7.494;2024-01-30T11:25:48;48.65;;;33.00;;
39956;SDS011;48483;44.640;7.494;2024-01-30T11:28:16;46.53;;;31.88;;
39956;SDS011;48483;44.640;7.494;2024-01-30T11:30:43;44.97;;;31.50;;
39956;SDS011;48483;44.640;7.494;2024-01-30T11:33:10;43.25;;;30.25;;
39956;SDS011;48483;44.640;7.494;2024-01-30T11:35:38;46.53;;;32.10;;
39956;SDS011;48483;44.640;7.494;2024-01-30T11:38:06;41.83;;;31.85;;
39956;SDS011;48483;44.640;7.494;2024-01-30T11:40:34;47.55;;;32.80;;
39956;SDS011;48483;44.640;7.494;2024-01-30T11:43:02;46.00;;;31.27;;
39956;SDS011;48483;44.640;7.494;2024-01-30T11:45:32;47.40;;;33.20;;
39956;SDS011;48483;44.640;7.494;2024-01-30T11:47:59;46.20;;;32.38;;
39956;SDS011;48483;44.640;7.494;2024-01-30T11:50:27;50.88;;;32.67;;
39956;SDS011;48483;44.640;7.494;2024-01-30T11:52:54;43.13;;;30.60;;
39956;SDS011;48483;44.640;7.494;2024-01-30T11:55:22;42.75;;;31.98;;
39956;SDS011;48483;44.640;7.494;2024-01-30T11:57:49;42.67;;;30.70;;
39956;SDS011;48483;44.640;7.494;2024-01-30T12:00:16;43.10;;;32.95;;
39956;SDS011;48483;44.640;7.494;2024-01-30T12:02:48;43.05;;;31.75;;
39956;SDS011;48483;44.640;7.494;2024-01-30T12:05:15;47.28;;;31.35;;
39956;SDS011;48483;44.640;7.494;2024-01-30T12:07:43;44.70;;;31.83;;
39956;SDS011;48483;44.640;7.494;2024-01-30T12:10:10;44.05;;;30.77;;
39956;SDS011;48483;44.640;7.494;2024-01-30T12:12:40;44.33;;;30.27;;
39956;SDS011;48483;44.640;7.494;2024-01-30T12:15:08;43.00;;;30.27;;
39956;SDS011;48483;44.640;7.494;2024-01-30T12:17:36;40.40;;;30.45;;
39956;SDS011;48483;44.640;7.494;2024-01-30T12:20:05;46.63;;;31.65;;
39956;SDS011;48483;44.640;7.494;2024-01-30T12:22:33;40.65;;;30.42;;
39956;SDS011;48483;44.640;7.494;2024-01-30T12:25:02;45.00;;;31.30;;
39956;SDS011;48483;44.640;7.494;2024-01-30T12:27:29;46.63;;;30.85;;
39956;SDS011;48483;44.640;7.494;2024-01-30T12:29:56;42.20;;;28.75;;
39956;SDS011;48483;44.640;7.494;2024-01-30T12:32:23;41.72;;;27.50;;
39956;SDS011;48483;44.640;7.494;2024-01-30T12:34:50;41.33;;;28.58;;
39956;SDS011;48483;44.640;7.494;2024-01-30T12:37:22;43.38;;;29.02;;
39956;SDS011;48483;44.640;7.494;2024-01-30T12:39:51;33.03;;;22.43;;
39956;SDS011;48483;44.640;7.494;2024-01-30T12:42:19;40.40;;;27.65;;
39956;SDS011;48483;44.640;7.494;2024-01-30T12:44:47;41.53;;;28.70;;
39956;SDS011;48483;44.640;7.494;2024-01-30T12:47:14;41.38;;;27.15;;
39956;SDS011;48483;44.640;7.494;2024-01-30T12:49:44;39.55;;;26.75;;
39956;SDS011;48483;44.640;7.494;2024-01-30T12:52:11;34.90;;;25.48;;
39956;SDS011;48483;44.640;7.494;2024-01-30T12:54:42;39.37;;;27.07;;
39956;SDS011;48483;44.640;7.494;2024-01-30T12:57:08;38.70;;;26.35;;
39956;SDS011;48483;44.640;7.494;2024-01-30T12:59:35;40.78;;;27.55;;
39956;SDS011;48483;44.640;7.494;2024-01-30T13:02:01;36.33;;;24.58;;
39956;SDS011;48483;44.640;7.494;2024-01-30T13:04:29;39.15;;;26.00;;
39956;SDS011;48483;44.640;7.494;2024-01-30T13:06:56;33.42;;;24.70;;
39956;SDS011;48483;44.640;7.494;2024-01-30T13:09:23;39.03;;;27.25;;
39956;SDS011;48483;44.640;7.494;2024-01-30T13:11:51;34.42;;;25.48;;
39956;SDS011;48483;44.640;7.494;2024-01-30T13:14:18;41.40;;;25.35;;
39956;SDS011;48483;44.640;7.494;2024-01-30T13:16:45;39.88;;;25.95;;
39956;SDS011;48483;44.640;7.494;2024-01-30T13:19:11;37.33;;;25.85;;
39956;SDS011;48483;44.640;7.494;2024-01-30T13:21:38;34.13;;;25.10;;
39956;SDS011;48483;44.640;7.494;2024-01-30T13:24:05;35.42;;;24.90;;
39956;SDS011;48483;44.640;7.494;2024-01-30T13:26:32;35.38;;;25.70;;
39956;SDS011;48483;44.640;7.494;2024-01-30T13:29:00;41.38;;;26.73;;
39956;SDS011;48483;44.640;7.494;2024-01-30T13:31:27;43.20;;;26.58;;
39956;SDS011;48483;44.640;7.494;2024-01-30T13:33:54;56.70;;;35.67;;
39956;SDS011;48483;44.640;7.494;2024-01-30T13:36:21;45.88;;;32.38;;
39956;SDS011;48483;44.640;7.494;2024-01-30T13:38:48;41.30;;;27.42;;
39956;SDS011;48483;44.640;7.494;2024-01-30T13:41:14;37.33;;;26.65;;
39956;SDS011;48483;44.640;7.494;2024-01-30T13:43:43;41.10;;;27.00;;
39956;SDS011;48483;44.640;7.494;2024-01-30T13:46:10;39.20;;;27.38;;
39956;SDS011;48483;44.640;7.494;2024-01-30T13:48:37;36.67;;;26.40;;
39956;SDS011;48483;44.640;7.494;2024-01-30T13:51:04;38.88;;;27.33;;
39956;SDS011;48483;44.640;7.494;2024-01-30T13:53:31;37.10;;;26.75;;
39956;SDS011;48483;44.640;7.494;2024-01-30T13:55:58;40.13;;;29.10;;
39956;SDS011;48483;44.640;7.494;2024-01-30T13:58:24;41.75;;;27.70;;
39956;SDS011;48483;44.640;7.494;2024-01-30T14:00:51;39.03;;;26.30;;
39956;SDS011;48483;44.640;7.494;2024-01-30T14:03:19;39.75;;;27.23;;
39956;SDS011;48483;44.640;7.494;2024-01-30T14:05:46;39.40;;;27.13;;
39956;SDS011;48483;44.640;7.494;2024-01-30T14:08:15;43.97;;;26.92;;
39956;SDS011;48483;44.640;7.494;2024-01-30T14:10:42;41.05;;;28.15;;
39956;SDS011;48483;44.640;7.494;2024-01-30T14:13:09;41.63;;;28.25;;
39956;SDS011;48483;44.640;7.494;2024-01-30T14:15:37;42.28;;;28.73;;
39956;SDS011;48483;44.640;7.494;2024-01-30T14:18:04;36.25;;;26.55;;
39956;SDS011;48483;44.640;7.494;2024-01-30T14:20:32;39.78;;;27.42;;
39956;SDS011;48483;44.640;7.494;2024-01-30T14:22:59;40.63;;;27.70;;
39956;SDS011;48483;44.640;7.494;2024-01-30T14:25:25;36.65;;;28.08;;